Emeline, Iowa
Current Conditions -  °F | °C
As of 8:35 PM on Wednesday 17 Dec 2014 (Local Time) from KMXO Reporting Station
Clear Clear  
Wind Chill: 19°   Ceiling: Unl
Heat Index: 19°   Visibility: 10mi
Dew Point: 16°   Wind: 3mph
Humidity: 86%   Direction: 320°NW
Pressure: 30.28"   Gusts: NA
Location:  42.0735°N, 90.817°W
Report Text: KMXO 180235Z AUTO 32003KT 10SM CLR M07/M09 A3028 RMK AO2
Loading
Personal Weather Stations






























Interactive Weather Map New forecast layout! Learn more

10-Day Weather Forecast

Advertisements
Track Severe Weather on mobile